sensor_id;sensor_type;location;lat;lon;timestamp;pressure;altitude;pressure_sealevel;temperature;humidity
44697;BME280;57264;47.480;19.354;2023-08-20T00:02:07;99446.22;;;23.06;74.82
44697;BME280;57264;47.480;19.354;2023-08-20T00:04:33;99446.22;;;23.06;74.82
44697;BME280;57264;47.480;19.354;2023-08-20T00:07:00;99438.63;;;23.13;74.59
44697;BME280;57264;47.480;19.354;2023-08-20T00:09:26;99442.38;;;23.12;74.20
44697;BME280;57264;47.480;19.354;2023-08-20T00:11:52;99445.78;;;22.94;75.30
44697;BME280;57264;47.480;19.354;2023-08-20T00:14:17;99442.56;;;22.92;75.47
44697;BME280;57264;47.480;19.354;2023-08-20T00:16:43;99449.72;;;23.01;74.93
44697;BME280;57264;47.480;19.354;2023-08-20T00:19:09;99445.38;;;22.76;76.23
44697;BME280;57264;47.480;19.354;2023-08-20T00:21:34;99450.56;;;22.97;74.95
44697;BME280;57264;47.480;19.354;2023-08-20T00:24:00;99440.72;;;22.87;75.34
44697;BME280;57264;47.480;19.354;2023-08-20T00:26:25;99445.78;;;22.94;74.82
44697;BME280;57264;47.480;19.354;2023-08-20T00:28:51;99440.69;;;22.92;74.69
44697;BME280;57264;47.480;19.354;2023-08-20T00:31:16;99442.06;;;22.90;74.68
44697;BME280;57264;47.480;19.354;2023-08-20T00:33:42;99436.78;;;22.79;74.76
44697;BME280;57264;47.480;19.354;2023-08-20T00:36:08;99437.56;;;22.85;73.61
44697;BME280;57264;47.480;19.354;2023-08-20T00:38:33;99437.75;;;22.94;72.89
44697;BME280;57264;47.480;19.354;2023-08-20T00:40:58;99436.72;;;22.90;72.81
44697;BME280;57264;47.480;19.354;2023-08-20T00:43:24;99431.94;;;22.87;72.77
44697;BME280;57264;47.480;19.354;2023-08-20T00:45:49;99434.53;;;22.92;72.39
44697;BME280;57264;47.480;19.354;2023-08-20T00:48:18;99427.00;;;22.99;71.53
44697;BME280;57264;47.480;19.354;2023-08-20T00:50:43;99430.16;;;23.06;70.96
44697;BME280;57264;47.480;19.354;2023-08-20T00:53:10;99436.38;;;23.25;70.14
44697;BME280;57264;47.480;19.354;2023-08-20T00:55:36;99442.00;;;23.23;70.61
44697;BME280;57264;47.480;19.354;2023-08-20T00:58:02;99450.56;;;23.25;70.52
44697;BME280;57264;47.480;19.354;2023-08-20T01:00:27;99450.84;;;23.24;70.69
44697;BME280;57264;47.480;19.354;2023-08-20T01:05:21;99453.47;;;23.29;70.64
44697;BME280;57264;47.480;19.354;2023-08-20T01:10:29;99447.09;;;22.96;72.41
44697;BME280;57264;47.480;19.354;2023-08-20T01:12:59;99443.75;;;22.80;72.90
44697;BME280;57264;47.480;19.354;2023-08-20T01:15:25;99444.34;;;22.72;73.47
44697;BME280;57264;47.480;19.354;2023-08-20T01:17:50;99444.63;;;22.71;73.64
44697;BME280;57264;47.480;19.354;2023-08-20T01:20:16;99438.19;;;22.67;74.11
44697;BME280;57264;47.480;19.354;2023-08-20T01:27:59;99446.28;;;22.62;74.35
44697;BME280;57264;47.480;19.354;2023-08-20T01:30:28;99450.09;;;22.51;75.01
44697;BME280;57264;47.480;19.354;2023-08-20T01:32:55;99450.06;;;22.56;74.62
44697;BME280;57264;47.480;19.354;2023-08-20T01:35:22;99444.66;;;22.61;74.31
44697;BME280;57264;47.480;19.354;2023-08-20T01:37:49;99445.47;;;22.61;73.83
44697;BME280;57264;47.480;19.354;2023-08-20T01:42:45;99441.03;;;22.85;71.94
44697;BME280;57264;47.480;19.354;2023-08-20T01:45:10;99437.44;;;22.95;71.16
44697;BME280;57264;47.480;19.354;2023-08-20T01:47:35;99436.25;;;22.82;71.62
44697;BME280;57264;47.480;19.354;2023-08-20T01:50:01;99430.31;;;22.85;71.42
44697;BME280;57264;47.480;19.354;2023-08-20T01:52:27;99440.13;;;22.95;70.45
44697;BME280;57264;47.480;19.354;2023-08-20T01:54:54;99425.72;;;23.20;68.57
44697;BME280;57264;47.480;19.354;2023-08-20T01:57:20;99433.00;;;23.14;68.83
44697;BME280;57264;47.480;19.354;2023-08-20T01:59:45;99427.88;;;23.18;68.45
44697;BME280;57264;47.480;19.354;2023-08-20T02:02:11;99428.50;;;23.10;68.32
44697;BME280;57264;47.480;19.354;2023-08-20T02:04:36;99428.47;;;23.15;67.94
44697;BME280;57264;47.480;19.354;2023-08-20T02:07:01;99428.91;;;23.22;67.56
44697;BME280;57264;47.480;19.354;2023-08-20T02:09:27;99431.41;;;23.13;67.96
44697;BME280;57264;47.480;19.354;2023-08-20T02:11:52;99429.91;;;23.02;69.39
44697;BME280;57264;47.480;19.354;2023-08-20T02:14:17;99438.94;;;22.82;70.84
44697;BME280;57264;47.480;19.354;2023-08-20T02:16:43;99435.50;;;22.72;71.58
44697;BME280;57264;47.480;19.354;2023-08-20T02:19:09;99427.78;;;22.65;71.73
44697;BME280;57264;47.480;19.354;2023-08-20T02:21:34;99435.25;;;22.73;71.36
44697;BME280;57264;47.480;19.354;2023-08-20T02:23:59;99426.16;;;22.74;70.55
44697;BME280;57264;47.480;19.354;2023-08-20T02:26:25;99428.28;;;22.67;71.13
44697;BME280;57264;47.480;19.354;2023-08-20T02:28:50;99427.25;;;22.68;70.27
44697;BME280;57264;47.480;19.354;2023-08-20T02:31:15;99428.06;;;22.98;68.88
44697;BME280;57264;47.480;19.354;2023-08-20T02:33:41;99419.69;;;22.75;69.63
44697;BME280;57264;47.480;19.354;2023-08-20T02:36:06;99427.56;;;22.62;70.55
44697;BME280;57264;47.480;19.354;2023-08-20T02:38:31;99421.72;;;22.55;71.14
44697;BME280;57264;47.480;19.354;2023-08-20T02:40:57;99433.28;;;22.45;71.79
44697;BME280;57264;47.480;19.354;2023-08-20T02:43:22;99432.16;;;22.51;71.40
44697;BME280;57264;47.480;19.354;2023-08-20T02:45:48;99423.50;;;22.30;72.35
44697;BME280;57264;47.480;19.354;2023-08-20T02:48:13;99431.53;;;22.25;72.43
44697;BME280;57264;47.480;19.354;2023-08-20T02:50:39;99430.53;;;22.16;72.56
44697;BME280;57264;47.480;19.354;2023-08-20T02:53:05;99435.41;;;22.04;73.55
44697;BME280;57264;47.480;19.354;2023-08-20T02:55:30;99431.31;;;22.22;72.54
44697;BME280;57264;47.480;19.354;2023-08-20T02:57:56;99426.81;;;22.07;73.13
44697;BME280;57264;47.480;19.354;2023-08-20T03:00:21;99422.19;;;22.23;72.37
44697;BME280;57264;47.480;19.354;2023-08-20T03:02:47;99425.88;;;22.32;71.94
44697;BME280;57264;47.480;19.354;2023-08-20T03:05:12;99433.38;;;22.30;71.50
44697;BME280;57264;47.480;19.354;2023-08-20T03:07:37;99422.69;;;22.30;71.79
44697;BME280;57264;47.480;19.354;2023-08-20T03:10:03;99432.75;;;22.43;71.22
44697;BME280;57264;47.480;19.354;2023-08-20T03:12:28;99429.38;;;22.66;69.84
44697;BME280;57264;47.480;19.354;2023-08-20T03:14:54;99426.78;;;22.56;70.24
44697;BME280;57264;47.480;19.354;2023-08-20T03:17:19;99430.72;;;22.30;71.46
44697;BME280;57264;47.480;19.354;2023-08-20T03:19:57;99432.94;;;22.18;72.28
44697;BME280;57264;47.480;19.354;2023-08-20T03:22:23;99430.84;;;22.10;72.34
44697;BME280;57264;47.480;19.354;2023-08-20T03:24:49;99435.09;;;22.11;72.03
44697;BME280;57264;47.480;19.354;2023-08-20T03:27:15;99441.16;;;22.26;71.13
44697;BME280;57264;47.480;19.354;2023-08-20T03:29:40;99434.38;;;22.39;70.17
44697;BME280;57264;47.480;19.354;2023-08-20T03:32:06;99437.72;;;22.21;71.03
44697;BME280;57264;47.480;19.354;2023-08-20T03:34:31;99436.66;;;22.22;70.91
44697;BME280;57264;47.480;19.354;2023-08-20T03:36:56;99437.31;;;21.99;71.90
44697;BME280;57264;47.480;19.354;2023-08-20T03:39:22;99443.47;;;21.94;72.20
44697;BME280;57264;47.480;19.354;2023-08-20T03:41:47;99442.41;;;21.85;72.96
44697;BME280;57264;47.480;19.354;2023-08-20T03:44:12;99449.88;;;21.83;72.72
44697;BME280;57264;47.480;19.354;2023-08-20T03:46:38;99447.53;;;21.71;73.38
44697;BME280;57264;47.480;19.354;2023-08-20T03:49:03;99446.22;;;21.69;73.25
44697;BME280;57264;47.480;19.354;2023-08-20T03:51:28;99445.88;;;21.85;72.23
44697;BME280;57264;47.480;19.354;2023-08-20T03:53:57;99444.25;;;22.00;71.24
44697;BME280;57264;47.480;19.354;2023-08-20T03:56:22;99448.84;;;22.38;69.10
44697;BME280;57264;47.480;19.354;2023-08-20T03:58:47;99445.16;;;22.29;69.56
44697;BME280;57264;47.480;19.354;2023-08-20T04:01:13;99449.69;;;22.28;69.57
44697;BME280;57264;47.480;19.354;2023-08-20T04:03:38;99455.03;;;22.33;69.38
44697;BME280;57264;47.480;19.354;2023-08-20T04:06:03;99453.19;;;22.29;69.83
44697;BME280;57264;47.480;19.354;2023-08-20T04:08:29;99455.38;;;22.22;70.44
44697;BME280;57264;47.480;19.354;2023-08-20T04:10:54;99453.97;;;22.29;70.04
44697;BME280;57264;47.480;19.354;2023-08-20T04:13:20;99450.53;;;22.24;70.37
44697;BME280;57264;47.480;19.354;2023-08-20T04:15:45;99460.88;;;22.35;69.87
44697;BME280;57264;47.480;19.354;2023-08-20T04:18:11;99459.81;;;22.36;69.76
44697;BME280;57264;47.480;19.354;2023-08-20T04:20:36;99456.53;;;22.50;69.28
44697;BME280;57264;47.480;19.354;2023-08-20T04:23:02;99456.41;;;22.70;67.82
44697;BME280;57264;47.480;19.354;2023-08-20T04:25:27;99457.72;;;22.72;68.04
44697;BME280;57264;47.480;19.354;2023-08-20T04:27:52;99463.88;;;22.73;67.97
44697;BME280;57264;47.480;19.354;2023-08-20T04:30:18;99461.06;;;22.88;67.66
44697;BME280;57264;47.480;19.354;2023-08-20T04:32:43;99471.59;;;22.79;68.32
44697;BME280;57264;47.480;19.354;2023-08-20T04:35:09;99470.97;;;22.88;68.33
44697;BME280;57264;47.480;19.354;2023-08-20T04:37:35;99458.97;;;24.33;63.21
44697;BME280;57264;47.480;19.354;2023-08-20T04:40:01;99454.59;;;24.93;61.10
44697;BME280;57264;47.480;19.354;2023-08-20T04:42:29;99458.50;;;24.82;60.76
44697;BME280;57264;47.480;19.354;2023-08-20T04:44:54;99464.84;;;24.91;60.35
44697;BME280;57264;47.480;19.354;2023-08-20T04:47:20;99462.53;;;25.30;59.21
44697;BME280;57264;47.480;19.354;2023-08-20T04:49:45;99466.38;;;25.70;58.58
44697;BME280;57264;47.480;19.354;2023-08-20T04:52:10;99468.75;;;25.99;57.54
44697;BME280;57264;47.480;19.354;2023-08-20T04:54:36;99478.69;;;26.39;56.73
44697;BME280;57264;47.480;19.354;2023-08-20T04:57:01;99472.81;;;26.10;57.67
44697;BME280;57264;47.480;19.354;2023-08-20T04:59:27;99476.06;;;27.45;54.66
44697;BME280;57264;47.480;19.354;2023-08-20T05:01:52;99482.16;;;26.98;55.85
44697;BME280;57264;47.480;19.354;2023-08-20T05:04:18;99482.97;;;26.98;55.94
44697;BME280;57264;47.480;19.354;2023-08-20T05:06:43;99480.78;;;27.31;55.97
44697;BME280;57264;47.480;19.354;2023-08-20T05:09:08;99480.69;;;27.84;53.75
44697;BME280;57264;47.480;19.354;2023-08-20T05:11:34;99473.38;;;27.76;54.08
44697;BME280;57264;47.480;19.354;2023-08-20T05:13:59;99484.81;;;27.82;54.18
44697;BME280;57264;47.480;19.354;2023-08-20T05:16:25;99479.63;;;27.55;54.16
44697;BME280;57264;47.480;19.354;2023-08-20T05:18:50;99476.84;;;28.16;53.33
44697;BME280;57264;47.480;19.354;2023-08-20T05:21:15;99474.53;;;28.01;53.28
44697;BME280;57264;47.480;19.354;2023-08-20T05:23:41;99482.56;;;28.58;51.85
44697;BME280;57264;47.480;19.354;2023-08-20T05:26:06;99471.09;;;29.12;50.27
44697;BME280;57264;47.480;19.354;2023-08-20T05:28:32;99480.66;;;28.32;51.44
44697;BME280;57264;47.480;19.354;2023-08-20T05:30:58;99473.66;;;28.66;50.98
44697;BME280;57264;47.480;19.354;2023-08-20T05:33:23;99483.84;;;28.86;50.71
44697;BME280;57264;47.480;19.354;2023-08-20T05:35:49;99488.13;;;28.35;51.31
44697;BME280;57264;47.480;19.354;2023-08-20T05:38:14;99492.16;;;27.99;52.33
44697;BME280;57264;47.480;19.354;2023-08-20T05:40:39;99491.59;;;27.40;54.65
44697;BME280;57264;47.480;19.354;2023-08-20T05:43:05;99488.78;;;27.93;53.54
44697;BME280;57264;47.480;19.354;2023-08-20T05:45:30;99500.47;;;27.40;54.08
44697;BME280;57264;47.480;19.354;2023-08-20T05:47:55;99509.56;;;27.22;55.61
44697;BME280;57264;47.480;19.354;2023-08-20T05:50:21;99504.66;;;27.86;53.92
44697;BME280;57264;47.480;19.354;2023-08-20T05:52:46;99505.44;;;28.34;53.20
44697;BME280;57264;47.480;19.354;2023-08-20T05:55:11;99501.81;;;28.56;52.42
44697;BME280;57264;47.480;19.354;2023-08-20T05:57:37;99505.22;;;28.14;54.59
44697;BME280;57264;47.480;19.354;2023-08-20T06:00:03;99509.16;;;27.99;54.66
44697;BME280;57264;47.480;19.354;2023-08-20T06:02:29;99511.50;;;27.53;56.60
44697;BME280;57264;47.480;19.354;2023-08-20T06:04:54;99516.47;;;26.70;59.18
44697;BME280;57264;47.480;19.354;2023-08-20T06:07:20;99516.78;;;26.19;61.60
44697;BME280;57264;47.480;19.354;2023-08-20T06:09:45;99524.03;;;26.32;61.68
44697;BME280;57264;47.480;19.354;2023-08-20T06:12:11;99520.53;;;26.18;62.23
44697;BME280;57264;47.480;19.354;2023-08-20T06:14:38;99514.97;;;26.64;61.08
44697;BME280;57264;47.480;19.354;2023-08-20T06:17:06;99517.34;;;26.16;62.09
44697;BME280;57264;47.480;19.354;2023-08-20T06:19:31;99514.25;;;26.72;61.65
44697;BME280;57264;47.480;19.354;2023-08-20T06:21:57;99524.63;;;26.79;61.13
44697;BME280;57264;47.480;19.354;2023-08-20T06:24:23;99517.00;;;26.59;61.64
44697;BME280;57264;47.480;19.354;2023-08-20T06:26:48;99529.06;;;26.97;61.23
44697;BME280;57264;47.480;19.354;2023-08-20T06:29:14;99524.28;;;26.80;61.33
44697;BME280;57264;47.480;19.354;2023-08-20T06:31:40;99530.97;;;27.72;59.84
44697;BME280;57264;47.480;19.354;2023-08-20T06:34:05;99517.84;;;27.48;61.26
44697;BME280;57264;47.480;19.354;2023-08-20T06:36:31;99519.66;;;27.70;60.53
44697;BME280;57264;47.480;19.354;2023-08-20T06:38:56;99522.47;;;27.34;62.83
44697;BME280;57264;47.480;19.354;2023-08-20T06:41:22;99517.34;;;28.42;58.28
44697;BME280;57264;47.480;19.354;2023-08-20T06:43:48;99511.16;;;28.93;58.71
44697;BME280;57264;47.480;19.354;2023-08-20T06:46:13;99508.13;;;29.12;58.66
44697;BME280;57264;47.480;19.354;2023-08-20T06:48:39;99511.44;;;29.35;57.38
44697;BME280;57264;47.480;19.354;2023-08-20T06:51:11;99517.81;;;28.35;57.98
44697;BME280;57264;47.480;19.354;2023-08-20T06:53:36;99521.16;;;28.50;58.56
44697;BME280;57264;47.480;19.354;2023-08-20T06:56:02;99516.28;;;28.86;58.88
44697;BME280;57264;47.480;19.354;2023-08-20T06:58:27;99510.22;;;28.98;57.12
44697;BME280;57264;47.480;19.354;2023-08-20T07:00:53;99512.06;;;29.49;55.59
44697;BME280;57264;47.480;19.354;2023-08-20T07:03:18;99513.88;;;29.02;58.29
44697;BME280;57264;47.480;19.354;2023-08-20T07:05:44;99516.22;;;29.29;58.57
44697;BME280;57264;47.480;19.354;2023-08-20T07:08:09;99524.81;;;29.22;58.04
44697;BME280;57264;47.480;19.354;2023-08-20T07:10:35;99525.63;;;28.97;60.20
44697;BME280;57264;47.480;19.354;2023-08-20T07:13:01;99528.63;;;28.35;58.80
44697;BME280;57264;47.480;19.354;2023-08-20T07:15:26;99530.66;;;28.30;61.31
44697;BME280;57264;47.480;19.354;2023-08-20T07:17:52;99537.69;;;27.52;62.09
44697;BME280;57264;47.480;19.354;2023-08-20T07:20:17;99529.94;;;27.59;62.52
44697;BME280;57264;47.480;19.354;2023-08-20T07:22:42;99525.81;;;27.62;63.76
44697;BME280;57264;47.480;19.354;2023-08-20T07:25:08;99522.88;;;29.49;58.27
44697;BME280;57264;47.480;19.354;2023-08-20T07:27:34;99524.72;;;28.85;59.60
44697;BME280;57264;47.480;19.354;2023-08-20T07:29:59;99535.63;;;28.45;61.72
44697;BME280;57264;47.480;19.354;2023-08-20T07:32:24;99541.47;;;28.30;61.00
44697;BME280;57264;47.480;19.354;2023-08-20T07:34:50;99525.47;;;28.85;61.18
44697;BME280;57264;47.480;19.354;2023-08-20T07:37:15;99518.19;;;29.66;57.80
44697;BME280;57264;47.480;19.354;2023-08-20T07:39:41;99537.28;;;28.80;59.48
44697;BME280;57264;47.480;19.354;2023-08-20T07:42:06;99533.88;;;28.58;60.12
44697;BME280;57264;47.480;19.354;2023-08-20T07:44:31;99532.63;;;28.55;61.40
44697;BME280;57264;47.480;19.354;2023-08-20T07:46:57;99532.97;;;28.71;60.41
44697;BME280;57264;47.480;19.354;2023-08-20T07:49:22;99527.75;;;29.64;56.88
44697;BME280;57264;47.480;19.354;2023-08-20T07:51:47;99521.25;;;30.24;55.00
44697;BME280;57264;47.480;19.354;2023-08-20T07:54:13;99523.38;;;29.89;56.13
44697;BME280;57264;47.480;19.354;2023-08-20T07:56:39;99524.94;;;29.52;56.49
44697;BME280;57264;47.480;19.354;2023-08-20T07:59:05;99527.22;;;28.47;59.31
44697;BME280;57264;47.480;19.354;2023-08-20T08:01:30;99528.38;;;28.80;60.08
44697;BME280;57264;47.480;19.354;2023-08-20T08:03:55;99536.63;;;28.75;60.12
44697;BME280;57264;47.480;19.354;2023-08-20T08:06:21;99524.66;;;29.19;56.82
44697;BME280;57264;47.480;19.354;2023-08-20T08:08:49;99523.72;;;29.15;57.88
44697;BME280;57264;47.480;19.354;2023-08-20T08:11:14;99532.91;;;29.40;58.38
44697;BME280;57264;47.480;19.354;2023-08-20T08:13:39;99524.44;;;29.96;59.42
44697;BME280;57264;47.480;19.354;2023-08-20T08:16:05;99531.63;;;29.37;55.95
44697;BME280;57264;47.480;19.354;2023-08-20T08:18:30;99532.09;;;30.24;53.45
44697;BME280;57264;47.480;19.354;2023-08-20T08:20:55;99528.00;;;30.38;55.13
44697;BME280;57264;47.480;19.354;2023-08-20T08:23:21;99528.38;;;30.07;54.02
44697;BME280;57264;47.480;19.354;2023-08-20T08:25:46;99543.91;;;29.17;56.51
44697;BME280;57264;47.480;19.354;2023-08-20T08:28:11;99536.56;;;29.44;54.74
44697;BME280;57264;47.480;19.354;2023-08-20T08:30:40;99531.81;;;30.46;55.49
44697;BME280;57264;47.480;19.354;2023-08-20T08:33:06;99531.91;;;29.99;55.04
44697;BME280;57264;47.480;19.354;2023-08-20T08:35:31;99528.28;;;30.25;54.71
44697;BME280;57264;47.480;19.354;2023-08-20T08:37:56;99529.53;;;29.98;53.00
44697;BME280;57264;47.480;19.354;2023-08-20T08:40:23;99533.16;;;29.64;54.35
44697;BME280;57264;47.480;19.354;2023-08-20T08:42:49;99534.56;;;29.70;53.22
44697;BME280;57264;47.480;19.354;2023-08-20T08:45:17;99531.16;;;29.82;54.79
44697;BME280;57264;47.480;19.354;2023-08-20T08:47:43;99527.13;;;30.55;51.41
44697;BME280;57264;47.480;19.354;2023-08-20T08:50:09;99528.28;;;31.07;51.22
44697;BME280;57264;47.480;19.354;2023-08-20T08:52:35;99534.72;;;31.03;49.07
44697;BME280;57264;47.480;19.354;2023-08-20T08:55:01;99532.06;;;31.60;48.24
44697;BME280;57264;47.480;19.354;2023-08-20T08:57:28;99531.34;;;30.44;50.87
44697;BME280;57264;47.480;19.354;2023-08-20T08:59:53;99537.69;;;30.89;49.76
44697;BME280;57264;47.480;19.354;2023-08-20T09:02:19;99530.75;;;31.00;46.73
44697;BME280;57264;47.480;19.354;2023-08-20T09:04:44;99538.69;;;30.64;48.15
44697;BME280;57264;47.480;19.354;2023-08-20T09:07:13;99541.41;;;30.35;49.17
44697;BME280;57264;47.480;19.354;2023-08-20T09:09:43;99538.31;;;31.40;49.09
44697;BME280;57264;47.480;19.354;2023-08-20T09:12:12;99542.78;;;30.91;48.91
44697;BME280;57264;47.480;19.354;2023-08-20T09:14:38;99547.34;;;30.78;48.28
44697;BME280;57264;47.480;19.354;2023-08-20T09:17:04;99544.16;;;31.30;47.56
44697;BME280;57264;47.480;19.354;2023-08-20T09:19:30;99535.84;;;31.47;47.07
44697;BME280;57264;47.480;19.354;2023-08-20T09:22:00;99544.38;;;31.13;47.67
44697;BME280;57264;47.480;19.354;2023-08-20T09:27:09;99544.69;;;30.70;47.70
44697;BME280;57264;47.480;19.354;2023-08-20T09:32:19;99545.91;;;31.01;47.93
44697;BME280;57264;47.480;19.354;2023-08-20T09:34:45;99545.09;;;30.80;47.42
44697;BME280;57264;47.480;19.354;2023-08-20T09:37:11;99543.22;;;31.13;48.47
44697;BME280;57264;47.480;19.354;2023-08-20T09:39:37;99545.03;;;30.47;47.17
44697;BME280;57264;47.480;19.354;2023-08-20T09:42:03;99542.06;;;31.02;46.77
44697;BME280;57264;47.480;19.354;2023-08-20T09:44:33;99543.28;;;30.13;45.58
44697;BME280;57264;47.480;19.354;2023-08-20T09:47:02;99548.00;;;30.54;47.87
44697;BME280;57264;47.480;19.354;2023-08-20T09:49:29;99539.94;;;30.87;43.24
44697;BME280;57264;47.480;19.354;2023-08-20T09:51:56;99535.38;;;31.00;45.13
44697;BME280;57264;47.480;19.354;2023-08-20T09:54:28;99541.00;;;31.28;48.51
44697;BME280;57264;47.480;19.354;2023-08-20T09:56:58;99535.41;;;31.45;45.99
44697;BME280;57264;47.480;19.354;2023-08-20T09:59:26;99539.34;;;31.02;47.35
44697;BME280;57264;47.480;19.354;2023-08-20T10:01:51;99533.59;;;31.49;46.76
44697;BME280;57264;47.480;19.354;2023-08-20T10:04:18;99538.09;;;30.79;48.09
44697;BME280;57264;47.480;19.354;2023-08-20T10:06:45;99531.28;;;30.73;47.11
44697;BME280;57264;47.480;19.354;2023-08-20T10:09:11;99526.75;;;31.19;49.22
44697;BME280;57264;47.480;19.354;2023-08-20T10:11:37;99528.13;;;31.25;45.91
44697;BME280;57264;47.480;19.354;2023-08-20T10:14:02;99528.91;;;31.25;47.43
44697;BME280;57264;47.480;19.354;2023-08-20T10:16:28;99536.31;;;30.62;47.55
44697;BME280;57264;47.480;19.354;2023-08-20T10:18:53;99526.94;;;31.13;45.16
44697;BME280;57264;47.480;19.354;2023-08-20T10:21:23;99524.31;;;31.50;43.24
44697;BME280;57264;47.480;19.354;2023-08-20T10:23:49;99528.59;;;31.39;43.11
44697;BME280;57264;47.480;19.354;2023-08-20T10:26:14;99521.22;;;31.60;41.13
44697;BME280;57264;47.480;19.354;2023-08-20T10:28:41;99521.44;;;31.22;39.07
44697;BME280;57264;47.480;19.354;2023-08-20T10:31:11;99523.16;;;31.39;42.67
44697;BME280;57264;47.480;19.354;2023-08-20T10:33:38;99525.22;;;30.76;42.87
44697;BME280;57264;47.480;19.354;2023-08-20T10:36:13;99519.78;;;31.42;41.50
44697;BME280;57264;47.480;19.354;2023-08-20T10:38:38;99527.06;;;31.05;42.91
44697;BME280;57264;47.480;19.354;2023-08-20T10:41:07;99524.50;;;31.66;43.87
44697;BME280;57264;47.480;19.354;2023-08-20T10:48:46;99515.78;;;31.60;42.29
44697;BME280;57264;47.480;19.354;2023-08-20T10:51:13;99514.09;;;31.23;45.55
44697;BME280;57264;47.480;19.354;2023-08-20T10:53:39;99517.31;;;31.49;44.11
44697;BME280;57264;47.480;19.354;2023-08-20T10:56:11;99513.38;;;31.13;43.27
44697;BME280;57264;47.480;19.354;2023-08-20T10:58:38;99509.50;;;31.47;42.08
44697;BME280;57264;47.480;19.354;2023-08-20T11:03:49;99507.97;;;31.71;41.92
44697;BME280;57264;47.480;19.354;2023-08-20T11:06:15;99511.03;;;31.57;42.06
44697;BME280;57264;47.480;19.354;2023-08-20T11:08:41;99501.63;;;31.79;41.61
44697;BME280;57264;47.480;19.354;2023-08-20T11:11:06;99501.31;;;31.92;42.46
44697;BME280;57264;47.480;19.354;2023-08-20T11:13:32;99507.41;;;31.65;42.41
44697;BME280;57264;47.480;19.354;2023-08-20T11:15:58;99503.34;;;31.59;41.52
44697;BME280;57264;47.480;19.354;2023-08-20T11:18:24;99500.63;;;31.95;40.85
44697;BME280;57264;47.480;19.354;2023-08-20T11:20:50;99495.16;;;32.32;40.30
44697;BME280;57264;47.480;19.354;2023-08-20T11:23:15;99496.06;;;32.36;39.69
44697;BME280;57264;47.480;19.354;2023-08-20T11:25:42;99494.22;;;32.52;40.78
44697;BME280;57264;47.480;19.354;2023-08-20T11:28:08;99495.88;;;32.04;40.76
44697;BME280;57264;47.480;19.354;2023-08-20T11:30:33;99496.09;;;31.87;43.96
44697;BME280;57264;47.480;19.354;2023-08-20T11:32:59;99493.16;;;31.56;39.88
44697;BME280;57264;47.480;19.354;2023-08-20T11:35:25;99492.69;;;32.02;40.07
44697;BME280;57264;47.480;19.354;2023-08-20T11:37:51;99488.25;;;31.25;40.04
44697;BME280;57264;47.480;19.354;2023-08-20T11:40:17;99484.50;;;32.39;41.91
44697;BME280;57264;47.480;19.354;2023-08-20T11:42:42;99484.69;;;32.46;40.64
44697;BME280;57264;47.480;19.354;2023-08-20T11:45:09;99474.13;;;32.29;40.71
44697;BME280;57264;47.480;19.354;2023-08-20T11:47:41;99484.78;;;31.97;40.12
44697;BME280;57264;47.480;19.354;2023-08-20T11:50:07;99478.09;;;32.07;40.45
44697;BME280;57264;47.480;19.354;2023-08-20T11:52:33;99477.09;;;31.63;41.00
44697;BME280;57264;47.480;19.354;2023-08-20T11:54:59;99477.41;;;31.37;41.39
44697;BME280;57264;47.480;19.354;2023-08-20T11:57:25;99475.94;;;31.40;41.40
44697;BME280;57264;47.480;19.354;2023-08-20T11:59:51;99478.00;;;31.55;41.29
44697;BME280;57264;47.480;19.354;2023-08-20T12:02:24;99471.25;;;31.16;42.01
44697;BME280;57264;47.480;19.354;2023-08-20T12:04:50;99471.88;;;31.82;42.56
44697;BME280;57264;47.480;19.354;2023-08-20T12:07:15;99467.81;;;31.52;42.03
44697;BME280;57264;47.480;19.354;2023-08-20T12:09:41;99468.84;;;31.72;41.59
44697;BME280;57264;47.480;19.354;2023-08-20T12:12:07;99466.03;;;31.68;40.71
44697;BME280;57264;47.480;19.354;2023-08-20T12:14:33;99461.50;;;32.09;42.13
44697;BME280;57264;47.480;19.354;2023-08-20T12:16:58;99463.53;;;32.12;40.47
44697;BME280;57264;47.480;19.354;2023-08-20T12:19:24;99458.53;;;32.26;40.52
44697;BME280;57264;47.480;19.354;2023-08-20T12:21:49;99461.28;;;31.89;40.22
44697;BME280;57264;47.480;19.354;2023-08-20T12:24:15;99463.41;;;32.08;38.99
44697;BME280;57264;47.480;19.354;2023-08-20T12:26:41;99460.78;;;32.24;40.86
44697;BME280;57264;47.480;19.354;2023-08-20T12:29:07;99464.66;;;31.74;39.99
44697;BME280;57264;47.480;19.354;2023-08-20T12:31:33;99454.59;;;31.75;39.51
44697;BME280;57264;47.480;19.354;2023-08-20T12:33:59;99460.38;;;31.73;39.06
44697;BME280;57264;47.480;19.354;2023-08-20T12:36:26;99447.72;;;31.77;38.98
44697;BME280;57264;47.480;19.354;2023-08-20T12:38:57;99453.34;;;31.72;40.00
44697;BME280;57264;47.480;19.354;2023-08-20T12:41:25;99458.56;;;31.77;40.44
44697;BME280;57264;47.480;19.354;2023-08-20T12:43:51;99468.94;;;32.24;42.07
44697;BME280;57264;47.480;19.354;2023-08-20T12:46:16;99462.50;;;31.80;39.14
44697;BME280;57264;47.480;19.354;2023-08-20T12:48:42;99461.81;;;31.83;39.87
44697;BME280;57264;47.480;19.354;2023-08-20T12:51:07;99462.09;;;31.66;39.17
44697;BME280;57264;47.480;19.354;2023-08-20T12:53:33;99455.59;;;31.94;39.51
44697;BME280;57264;47.480;19.354;2023-08-20T12:55:59;99449.03;;;31.95;37.41
44697;BME280;57264;47.480;19.354;2023-08-20T12:58:24;99451.97;;;32.15;38.25
44697;BME280;57264;47.480;19.354;2023-08-20T13:00:50;99447.13;;;31.60;37.51
44697;BME280;57264;47.480;19.354;2023-08-20T13:03:16;99451.06;;;31.98;38.97
44697;BME280;57264;47.480;19.354;2023-08-20T13:05:42;99446.09;;;32.00;38.40
44697;BME280;57264;47.480;19.354;2023-08-20T13:08:07;99443.00;;;32.26;39.64
44697;BME280;57264;47.480;19.354;2023-08-20T13:10:33;99436.13;;;32.04;38.98